Fort Benning, GA

8:24 PM EDT en Octubre 31, 2014 (GMT -0400)
Columbus Metro | Change Station
CLOSE
Current Station
Aeropuerto
Location: Columbus,
Altura: 397 ft
Estaciones meteorológicas cercanas
Aviso en curso: Wind Advisory, Freeze Watch

Alt 397 ft 32.52 °N, 84.94 °W | Updated 33 minutes ago

Muy nublado
Muy nublado
60 ° F
Sensación térmica 60 ° F
N
5
Viento Variable Viento desde Norte

Hoy
Alta -- | Baja -- ° F
--% Posibilidad de precipitaciones
Ayer
Alta -- | Baja -- ° F
Precip. -- pul
7:56 AM 6:50 PM
Cuarto creciente, 60% visible
Presión 29.91 pul
Visibilidad 10.0 Millas
Nubes Despejado
Punto de rocío 40 ° F
Humedad 47%
Precipitaciones 0.00 pul
Espesor de la nieve No disponible.
UV 0 de una escala de 12
Polen 2.20 de una escala de 12
Calidad del aire No disponible.
Flu Activity No disponible.
METAR KCSG 312351Z 36004KT 10SM CLR 16/04 A2992 RMK AO2 SLP129 T01560044 10211 20156 50010

More Conditions Fewer Conditions

Presión 29.91 pul
Visibilidad 10.0 Millas
Nubes Despejado
Punto de rocío 40 ° F
Humedad 47%
Precipitaciones 0.00 pul
Espesor de la nieve No disponible.
UV 0 de una escala de 12
Polen 2.20 de una escala de 12
Calidad del aire No disponible.
Flu Activity No disponible.
METAR KCSG 312351Z 36004KT 10SM CLR 16/04 A2992 RMK AO2 SLP129 T01560044 10211 20156 50010

More Conditions Fewer Conditions

10-Day Weather Forecast

Almanac

Astronomía

Oct. 31, 2014 Salida Puesta
Hora real
Crepúsculo civil
Crepúsculo náutico
Crepúsculo astronómico
Luna
Horas de luz
Horas de luz
Tomorrow will be .
, % of the Moon is Illuminated

Extremos de hoy

Máximos del estado Bajos del estado

Community

WunderPhotos

Upload Photos

1,766,792 ¡fotos cargadas!

WunderBlogs® & News

Nearby

Calidad del aire

  Calidad del aire Índice AQ Contaminante
Not available.

Grosos de nieve

Estación Profundido Altura

Actividad de terremotos

Ciudad Distance Mag. Tiempo y dato
Magnitud mínima muestra es 2,5.

Temperaturas de aguas costeras

Lugar Temperatura

Estaciones meteorológicas cercanas